Nyk Orpheus — 7JDN — position and weather

sailwx.info

Track history (hours):
 
Tides and Currents Weather Stations Pressure Air Temp Water Temp Dewpoint Dewpoint Depression Visibility Wind Speed Wind Dir Waves Ship Positions

Nyk Orpheus

Last reported at 2014-Jul-29 05:08 UTC. Time now 2014-Jul-30 15:08 UTC.
Position N 36°33' W 000°55'.

Length 336 m; draft 13.8 m.

Type: Other ship. MMSI: 432657000.

Date/timePositionNaut miles runAvg speedWind from/ knotsBaromVisibWave heightAir tempDewpointWater temp
2014-Jul-29 05:08N 36°33' W 000°55'1617.7
2014-Jul-29 04:14N 36°30' W 001°14'19818.4
2014-Jul-28 17:26N 35°59' W 005°17'16017.7
2014-Jul-28 08:26N 36°23' W 008°32'1517.0
2014-Jul-28 07:33N 36°27' W 008°50'1717.3
2014-Jul-28 06:33N 36°32' W 009°11'2017.2
2014-Jul-28 05:24N 36°44' W 009°31'3217.4
2014-Jul-28 03:34N 37°14' W 009°43'2117.9
2014-Jul-28 02:24N 37°34' W 009°50'1717.4
2014-Jul-28 01:25N 37°51' W 009°54'1517.3
2014-Jul-28 00:33N 38°06' W 009°57'1717.6
2014-Jul-27 23:34N 38°23' W 010°02'1817.7
2014-Jul-27 22:33N 38°40' W 010°06'1817.9
2014-Jul-27 21:33N 38°58' W 010°07'1818.2
2014-Jul-27 20:34N 39°16' W 010°07'1817.5
2014-Jul-27 19:30N 39°35' W 010°07'3417.5
2014-Jul-27 17:33N 40°09' W 010°07'34717.0
2014-Jul-26 21:07N 45°46' W 008°19'1217.7
2014-Jul-26 20:25N 45°57' W 008°10'13517.1
2014-Jul-26 12:31N 47°55' W 006°34'5617.6
2014-Jul-26 09:22N 48°44' W 005°54'3317.7
2014-Jul-26 07:30N 49°05' W 005°16'1617.1
2014-Jul-26 06:34N 49°14' W 004°56'1716.8
2014-Jul-26 05:32N 49°26' W 004°37'1616.5
2014-Jul-26 04:33N 49°38' W 004°20'11814.4
2014-Jul-25 20:22N 50°25' W 001°31'1214.2
2014-Jul-25 19:33N 50°25' W 001°12'1714.3
2014-Jul-25 18:22N 50°25' W 000°46'1315.9
2014-Jul-25 17:33N 50°29' W 000°26'1717.4
2014-Jul-25 16:33N 50°33' E 000°00'1818.2
2014-Jul-25 15:33N 50°38' E 000°28'1818.1
2014-Jul-25 14:33N 50°46' E 000°53'1717.4
2014-Jul-25 13:33N 50°57' E 001°14'1615.7
2014-Jul-25 12:33N 51°07' E 001°34'1515.0
2014-Jul-25 11:33N 51°17' E 001°52'1616.2
2014-Jul-25 10:33N 51°31' E 002°05'1717.4
2014-Jul-25 09:33N 51°44' E 002°23'1818.3
2014-Jul-25 08:33N 51°57' E 002°44'1717.2
2014-Jul-25 07:33N 52°02' E 003°11'1716.6
2014-Jul-25 06:33N 52°03' E 003°38'1312.6
2014-Jul-25 05:33N 52°01' E 003°58'5 5.5
2014-Jul-25 04:33N 51°57' E 004°04'1 0.8
2014-Jul-25 03:31N 51°57' E 004°03'0 0.0
2014-Jul-25 02:31N 51°57' E 004°03'0 0.0
2014-Jul-25 01:28N 51°57' E 004°03'0 0.0
2014-Jul-25 00:28N 51°57' E 004°03'0 0.0
2014-Jul-24 23:31N 51°57' E 004°03'0 0.0
2014-Jul-24 22:31N 51°57' E 004°03'0 0.0
2014-Jul-24 21:31N 51°57' E 004°03'0 0.0
2014-Jul-24 20:28N 51°57' E 004°03'0 0.0
2014-Jul-24 19:31N 51°57' E 004°03'0 0.0
2014-Jul-24 18:31N 51°57' E 004°03'0 0.0
2014-Jul-24 17:31N 51°57' E 004°03'0 0.0
2014-Jul-24 16:31N 51°57' E 004°03'0 0.0
2014-Jul-24 15:31N 51°57' E 004°03'0 0.0
2014-Jul-24 14:31N 51°57' E 004°03'0 0.0
2014-Jul-24 13:28N 51°57' E 004°03'0 0.0
2014-Jul-24 12:31N 51°57' E 004°03'0 0.0
2014-Jul-24 11:31N 51°57' E 004°03'0 0.0
2014-Jul-24 10:31N 51°57' E 004°03'0 0.0
2014-Jul-24 09:31N 51°57' E 004°03'0 0.0
2014-Jul-24 08:31N 51°57' E 004°03'0 0.0
2014-Jul-24 07:31N 51°57' E 004°03'0 0.0
2014-Jul-24 06:31N 51°57' E 004°03'0 0.0
2014-Jul-24 05:31N 51°57' E 004°03'0 0.0
2014-Jul-24 04:31N 51°57' E 004°03'0 0.0
2014-Jul-24 03:31N 51°57' E 004°03'0 0.0
2014-Jul-24 02:31N 51°57' E 004°03'0 0.0
2014-Jul-24 01:31N 51°57' E 004°03'0 0.0
2014-Jul-24 00:31N 51°57' E 004°03'0 0.0
2014-Jul-23 23:31N 51°57' E 004°03'0 0.0
2014-Jul-23 22:31N 51°57' E 004°03'0 0.0
2014-Jul-23 21:31N 51°57' E 004°03'0 0.0
2014-Jul-23 20:31N 51°57' E 004°03'0 0.0
2014-Jul-23 19:31N 51°57' E 004°03'0 0.0
2014-Jul-23 18:31N 51°57' E 004°03'0 0.0
2014-Jul-23 17:31N 51°57' E 004°03'0 0.0
2014-Jul-23 16:31N 51°57' E 004°03'0 0.0
2014-Jul-23 15:31N 51°57' E 004°03'0 0.0
2014-Jul-23 14:31N 51°57' E 004°03'0 0.0
2014-Jul-23 13:25N 51°57' E 004°03'0 0.0
2014-Jul-23 12:31N 51°57' E 004°03'0 0.0
2014-Jul-23 11:22N 51°57' E 004°03'0 0.0
2014-Jul-23 10:31N 51°57' E 004°03'0 0.0
2014-Jul-23 09:28N 51°57' E 004°03'0 0.0
2014-Jul-23 08:31N 51°57' E 004°03'1 1.1
2014-Jul-23 07:34N 51°57' E 004°04'3 3.0
2014-Jul-23 06:34N 51°59' E 004°02'9 8.6
2014-Jul-23 05:33N 52°01' E 003°48'6 5.7
2014-Jul-23 04:33N 52°06' E 003°46'7 6.9
2014-Jul-23 03:34N 52°11' E 003°38'0 0.1
2014-Jul-23 02:31N 52°11' E 003°38'0 0.2
2014-Jul-23 01:31N 52°11' E 003°38'0 0.1
2014-Jul-23 00:31N 52°11' E 003°38'0 0.1
2014-Jul-22 23:31N 52°11' E 003°39'0 0.2
2014-Jul-22 22:31N 52°11' E 003°38'0 0.1
2014-Jul-22 21:31N 52°11' E 003°38'0 0.0
2014-Jul-22 20:31N 52°11' E 003°38'0 0.0
2014-Jul-22 19:31N 52°11' E 003°38'0 0.0
2014-Jul-22 18:31N 52°11' E 003°38'0 0.0
2014-Jul-22 17:31N 52°11' E 003°38'0 0.0
2014-Jul-22 16:31N 52°11' E 003°38'0 0.0
2014-Jul-22 15:31N 52°11' E 003°38'0 0.0
2014-Jul-22 14:31N 52°11' E 003°38'0 0.1
2014-Jul-22 13:31N 52°11' E 003°38'0 0.2
2014-Jul-22 12:31N 52°11' E 003°38'0 0.0
2014-Jul-22 11:28N 52°11' E 003°38'0 0.0
2014-Jul-22 10:31N 52°11' E 003°39'0 0.2
2014-Jul-22 09:31N 52°11' E 003°38'0 0.1
2014-Jul-22 08:31N 52°11' E 003°38'0 0.0
2014-Jul-22 07:31N 52°11' E 003°38'0 0.0
2014-Jul-22 06:31N 52°11' E 003°38'0 0.0
2014-Jul-22 05:31N 52°11' E 003°38'0 0.0
2014-Jul-22 04:31N 52°11' E 003°38'0 0.0
2014-Jul-22 03:25N 52°11' E 003°38'0 0.0
2014-Jul-22 02:31N 52°11' E 003°38'0 0.0
2014-Jul-22 01:28N 52°11' E 003°38'0 0.0
2014-Jul-22 00:16N 52°11' E 003°38'0 0.1
2014-Jul-21 23:31N 52°11' E 003°38'0 0.1
2014-Jul-21 21:33N 52°11' E 003°38'4 3.6
2014-Jul-21 20:30N 52°14' E 003°42'2 8.4
2014-Jul-21 20:16N 52°16' E 003°44'912.4
2014-Jul-21 19:33N 52°24' E 003°49'1313.5
2014-Jul-21 18:33N 52°37' E 003°53'1413.8
2014-Jul-21 17:33N 52°51' E 003°58'2713.1
2014-Jul-21 15:29N 53°12' E 004°25'2311.7
2014-Jul-21 13:32N 53°31' E 004°48'1211.8
2014-Jul-21 12:33N 53°36' E 005°06'1212.0
2014-Jul-21 11:33N 53°39' E 005°25'1312.9
2014-Jul-21 10:34N 53°44' E 005°45'1413.7
2014-Jul-21 09:34N 53°48' E 006°07'1313.5
2014-Jul-21 08:34N 53°51' E 006°29'3913.1
2014-Jul-21 05:33N 54°01' E 007°35'1211.8
2014-Jul-21 04:33N 54°01' E 007°55'1211.7
2014-Jul-21 03:33N 54°00' E 008°15'1211.7
2014-Jul-21 02:33N 53°58' E 008°34'1313.0
2014-Jul-21 01:33N 53°50' E 008°52'1413.7
2014-Jul-21 00:33N 53°53' E 009°15'1514.7
2014-Jul-20 23:33N 53°41' E 009°30'1111.3
2014-Jul-20 22:34N 53°34' E 009°45'7 7.3
2014-Jul-20 21:34N 53°32' E 009°56'2 1.7
2014-Jul-20 20:33N 53°30' E 009°56'0 0.0
2014-Jul-20 19:33N 53°30' E 009°56'0 0.0
2014-Jul-20 18:33N 53°30' E 009°56'0 0.0
2014-Jul-20 17:33N 53°30' E 009°56'0 0.0
2014-Jul-20 16:30N 53°30' E 009°56'0 0.0
2014-Jul-20 15:30N 53°30' E 009°56'0 0.0
2014-Jul-20 14:33N 53°30' E 009°56'0 0.0
2014-Jul-20 13:33N 53°30' E 009°56'0 0.0
2014-Jul-20 12:30N 53°30' E 009°56'0 0.0
2014-Jul-20 11:33N 53°30' E 009°56'0 0.0
2014-Jul-20 10:33N 53°30' E 009°56'0 0.0
2014-Jul-20 09:30N 53°30' E 009°56'0 0.0
2014-Jul-20 08:30N 53°30' E 009°56'0 0.0
2014-Jul-20 07:33N 53°30' E 009°56'0 0.0
2014-Jul-20 06:33N 53°30' E 009°56'0 0.0
2014-Jul-20 05:33N 53°30' E 009°56'0 0.0
2014-Jul-20 04:33N 53°30' E 009°56'0 0.0
2014-Jul-20 03:33N 53°30' E 009°56'0 0.0
2014-Jul-20 02:33N 53°30' E 009°56'0 0.0
2014-Jul-20 01:33N 53°30' E 009°56'0 0.0
2014-Jul-20 00:33N 53°30' E 009°56'0 0.0
2014-Jul-19 23:33N 53°30' E 009°56'0 0.0
2014-Jul-19 22:33N 53°30' E 009°56'0 0.0
2014-Jul-19 21:33N 53°30' E 009°56'0 0.0
2014-Jul-19 20:33N 53°30' E 009°56'0 0.0
2014-Jul-19 19:31N 53°30' E 009°56'1 0.9
2014-Jul-19 18:33N 53°31' E 009°56'6 6.3
2014-Jul-19 17:33N 53°33' E 009°47'1111.2
2014-Jul-19 16:33N 53°39' E 009°31'1414.1
2014-Jul-19 15:34N 53°51' E 009°18'1111.4
2014-Jul-19 14:33N 53°51' E 008°59'10 9.7
2014-Jul-19 13:34N 53°53' E 008°43'1110.8
2014-Jul-19 12:34N 53°59' E 008°28'1111.4
2014-Jul-19 11:33N 53°59' E 008°08'4 4.1
2014-Jul-19 10:33N 54°03' E 008°05'1 1.2
2014-Jul-19 09:32N 54°04' E 008°05'0 0.0
2014-Jul-19 08:32N 54°04' E 008°05'0 0.0
2014-Jul-19 07:32N 54°04' E 008°05'0 0.0
2014-Jul-19 06:32N 54°04' E 008°05'0 0.0
2014-Jul-19 05:32N 54°04' E 008°05'  
Track history (hours):
 
Tides and Currents Weather Stations Pressure Air Temp Water Temp Dewpoint Dewpoint Depression Visibility Wind Speed Wind Dir Waves Ship Positions

Nyk Orpheus

Last reported at 2014-Jul-29 05:08 UTC. Time now 2014-Jul-30 15:08 UTC.
Position N 36°33' W 000°55'.

Length 336 m; draft 13.8 m.

Type: Other ship. MMSI: 432657000.

Date/timePositionNaut miles runAvg speedWind from/ knotsBaromVisibWave heightAir tempDewpointWater temp
2014-Jul-29 05:08N 36°33' W 000°55'1617.7
2014-Jul-29 04:14N 36°30' W 001°14'19818.4
2014-Jul-28 17:26N 35°59' W 005°17'16017.7
2014-Jul-28 08:26N 36°23' W 008°32'1517.0
2014-Jul-28 07:33N 36°27' W 008°50'1717.3
2014-Jul-28 06:33N 36°32' W 009°11'2017.2
2014-Jul-28 05:24N 36°44' W 009°31'3217.4
2014-Jul-28 03:34N 37°14' W 009°43'2117.9
2014-Jul-28 02:24N 37°34' W 009°50'1717.4
2014-Jul-28 01:25N 37°51' W 009°54'1517.3
2014-Jul-28 00:33N 38°06' W 009°57'1717.6
2014-Jul-27 23:34N 38°23' W 010°02'1817.7
2014-Jul-27 22:33N 38°40' W 010°06'1817.9
2014-Jul-27 21:33N 38°58' W 010°07'1818.2
2014-Jul-27 20:34N 39°16' W 010°07'1817.5
2014-Jul-27 19:30N 39°35' W 010°07'3417.5
2014-Jul-27 17:33N 40°09' W 010°07'34717.0
2014-Jul-26 21:07N 45°46' W 008°19'1217.7
2014-Jul-26 20:25N 45°57' W 008°10'13517.1
2014-Jul-26 12:31N 47°55' W 006°34'5617.6
2014-Jul-26 09:22N 48°44' W 005°54'3317.7
2014-Jul-26 07:30N 49°05' W 005°16'1617.1
2014-Jul-26 06:34N 49°14' W 004°56'1716.8
2014-Jul-26 05:32N 49°26' W 004°37'1616.5
2014-Jul-26 04:33N 49°38' W 004°20'11814.4
2014-Jul-25 20:22N 50°25' W 001°31'1214.2
2014-Jul-25 19:33N 50°25' W 001°12'1714.3
2014-Jul-25 18:22N 50°25' W 000°46'1315.9
2014-Jul-25 17:33N 50°29' W 000°26'1717.4
2014-Jul-25 16:33N 50°33' E 000°00'1818.2
2014-Jul-25 15:33N 50°38' E 000°28'1818.1
2014-Jul-25 14:33N 50°46' E 000°53'1717.4
2014-Jul-25 13:33N 50°57' E 001°14'1615.7
2014-Jul-25 12:33N 51°07' E 001°34'1515.0
2014-Jul-25 11:33N 51°17' E 001°52'1616.2
2014-Jul-25 10:33N 51°31' E 002°05'1717.4
2014-Jul-25 09:33N 51°44' E 002°23'1818.3
2014-Jul-25 08:33N 51°57' E 002°44'1717.2
2014-Jul-25 07:33N 52°02' E 003°11'1716.6
2014-Jul-25 06:33N 52°03' E 003°38'1312.6
2014-Jul-25 05:33N 52°01' E 003°58'5 5.5
2014-Jul-25 04:33N 51°57' E 004°04'1 0.8
2014-Jul-25 03:31N 51°57' E 004°03'0 0.0
2014-Jul-25 02:31N 51°57' E 004°03'0 0.0
2014-Jul-25 01:28N 51°57' E 004°03'0 0.0
2014-Jul-25 00:28N 51°57' E 004°03'0 0.0
2014-Jul-24 23:31N 51°57' E 004°03'0 0.0
2014-Jul-24 22:31N 51°57' E 004°03'0 0.0
2014-Jul-24 21:31N 51°57' E 004°03'0 0.0
2014-Jul-24 20:28N 51°57' E 004°03'0 0.0
2014-Jul-24 19:31N 51°57' E 004°03'0 0.0
2014-Jul-24 18:31N 51°57' E 004°03'0 0.0
2014-Jul-24 17:31N 51°57' E 004°03'0 0.0
2014-Jul-24 16:31N 51°57' E 004°03'0 0.0
2014-Jul-24 15:31N 51°57' E 004°03'0 0.0
2014-Jul-24 14:31N 51°57' E 004°03'0 0.0
2014-Jul-24 13:28N 51°57' E 004°03'0 0.0
2014-Jul-24 12:31N 51°57' E 004°03'0 0.0
2014-Jul-24 11:31N 51°57' E 004°03'0 0.0
2014-Jul-24 10:31N 51°57' E 004°03'0 0.0
2014-Jul-24 09:31N 51°57' E 004°03'0 0.0
2014-Jul-24 08:31N 51°57' E 004°03'0 0.0
2014-Jul-24 07:31N 51°57' E 004°03'0 0.0
2014-Jul-24 06:31N 51°57' E 004°03'0 0.0
2014-Jul-24 05:31N 51°57' E 004°03'0 0.0
2014-Jul-24 04:31N 51°57' E 004°03'0 0.0
2014-Jul-24 03:31N 51°57' E 004°03'0 0.0
2014-Jul-24 02:31N 51°57' E 004°03'0 0.0
2014-Jul-24 01:31N 51°57' E 004°03'0 0.0
2014-Jul-24 00:31N 51°57' E 004°03'0 0.0
2014-Jul-23 23:31N 51°57' E 004°03'0 0.0
2014-Jul-23 22:31N 51°57' E 004°03'0 0.0
2014-Jul-23 21:31N 51°57' E 004°03'0 0.0
2014-Jul-23 20:31N 51°57' E 004°03'0 0.0
2014-Jul-23 19:31N 51°57' E 004°03'0 0.0
2014-Jul-23 18:31N 51°57' E 004°03'0 0.0
2014-Jul-23 17:31N 51°57' E 004°03'0 0.0
2014-Jul-23 16:31N 51°57' E 004°03'0 0.0
2014-Jul-23 15:31N 51°57' E 004°03'0 0.0
2014-Jul-23 14:31N 51°57' E 004°03'0 0.0
2014-Jul-23 13:25N 51°57' E 004°03'0 0.0
2014-Jul-23 12:31N 51°57' E 004°03'0 0.0
2014-Jul-23 11:22N 51°57' E 004°03'0 0.0
2014-Jul-23 10:31N 51°57' E 004°03'0 0.0
2014-Jul-23 09:28N 51°57' E 004°03'0 0.0
2014-Jul-23 08:31N 51°57' E 004°03'1 1.1
2014-Jul-23 07:34N 51°57' E 004°04'3 3.0
2014-Jul-23 06:34N 51°59' E 004°02'9 8.6
2014-Jul-23 05:33N 52°01' E 003°48'6 5.7
2014-Jul-23 04:33N 52°06' E 003°46'7 6.9
2014-Jul-23 03:34N 52°11' E 003°38'0 0.1
2014-Jul-23 02:31N 52°11' E 003°38'0 0.2
2014-Jul-23 01:31N 52°11' E 003°38'0 0.1
2014-Jul-23 00:31N 52°11' E 003°38'0 0.1
2014-Jul-22 23:31N 52°11' E 003°39'0 0.2
2014-Jul-22 22:31N 52°11' E 003°38'0 0.1
2014-Jul-22 21:31N 52°11' E 003°38'0 0.0
2014-Jul-22 20:31N 52°11' E 003°38'0 0.0
2014-Jul-22 19:31N 52°11' E 003°38'0 0.0
2014-Jul-22 18:31N 52°11' E 003°38'0 0.0
2014-Jul-22 17:31N 52°11' E 003°38'0 0.0
2014-Jul-22 16:31N 52°11' E 003°38'0 0.0
2014-Jul-22 15:31N 52°11' E 003°38'0 0.0
2014-Jul-22 14:31N 52°11' E 003°38'0 0.1
2014-Jul-22 13:31N 52°11' E 003°38'0 0.2
2014-Jul-22 12:31N 52°11' E 003°38'0 0.0
2014-Jul-22 11:28N 52°11' E 003°38'0 0.0
2014-Jul-22 10:31N 52°11' E 003°39'0 0.2
2014-Jul-22 09:31N 52°11' E 003°38'0 0.1
2014-Jul-22 08:31N 52°11' E 003°38'0 0.0
2014-Jul-22 07:31N 52°11' E 003°38'0 0.0
2014-Jul-22 06:31N 52°11' E 003°38'0 0.0
2014-Jul-22 05:31N 52°11' E 003°38'0 0.0
2014-Jul-22 04:31N 52°11' E 003°38'0 0.0
2014-Jul-22 03:25N 52°11' E 003°38'0 0.0
2014-Jul-22 02:31N 52°11' E 003°38'0 0.0
2014-Jul-22 01:28N 52°11' E 003°38'0 0.0
2014-Jul-22 00:16N 52°11' E 003°38'0 0.1
2014-Jul-21 23:31N 52°11' E 003°38'0 0.1
2014-Jul-21 21:33N 52°11' E 003°38'4 3.6
2014-Jul-21 20:30N 52°14' E 003°42'2 8.4
2014-Jul-21 20:16N 52°16' E 003°44'912.4
2014-Jul-21 19:33N 52°24' E 003°49'1313.5
2014-Jul-21 18:33N 52°37' E 003°53'1413.8
2014-Jul-21 17:33N 52°51' E 003°58'2713.1
2014-Jul-21 15:29N 53°12' E 004°25'2311.7
2014-Jul-21 13:32N 53°31' E 004°48'1211.8
2014-Jul-21 12:33N 53°36' E 005°06'1212.0
2014-Jul-21 11:33N 53°39' E 005°25'1312.9
2014-Jul-21 10:34N 53°44' E 005°45'1413.7
2014-Jul-21 09:34N 53°48' E 006°07'1313.5
2014-Jul-21 08:34N 53°51' E 006°29'3913.1
2014-Jul-21 05:33N 54°01' E 007°35'1211.8
2014-Jul-21 04:33N 54°01' E 007°55'1211.7
2014-Jul-21 03:33N 54°00' E 008°15'1211.7
2014-Jul-21 02:33N 53°58' E 008°34'1313.0
2014-Jul-21 01:33N 53°50' E 008°52'1413.7
2014-Jul-21 00:33N 53°53' E 009°15'1514.7
2014-Jul-20 23:33N 53°41' E 009°30'1111.3
2014-Jul-20 22:34N 53°34' E 009°45'7 7.3
2014-Jul-20 21:34N 53°32' E 009°56'2 1.7
2014-Jul-20 20:33N 53°30' E 009°56'0 0.0
2014-Jul-20 19:33N 53°30' E 009°56'0 0.0
2014-Jul-20 18:33N 53°30' E 009°56'0 0.0
2014-Jul-20 17:33N 53°30' E 009°56'0 0.0
2014-Jul-20 16:30N 53°30' E 009°56'0 0.0
2014-Jul-20 15:30N 53°30' E 009°56'0 0.0
2014-Jul-20 14:33N 53°30' E 009°56'0 0.0
2014-Jul-20 13:33N 53°30' E 009°56'0 0.0
2014-Jul-20 12:30N 53°30' E 009°56'0 0.0
2014-Jul-20 11:33N 53°30' E 009°56'0 0.0
2014-Jul-20 10:33N 53°30' E 009°56'0 0.0
2014-Jul-20 09:30N 53°30' E 009°56'0 0.0
2014-Jul-20 08:30N 53°30' E 009°56'0 0.0
2014-Jul-20 07:33N 53°30' E 009°56'0 0.0
2014-Jul-20 06:33N 53°30' E 009°56'0 0.0
2014-Jul-20 05:33N 53°30' E 009°56'0 0.0
2014-Jul-20 04:33N 53°30' E 009°56'0 0.0
2014-Jul-20 03:33N 53°30' E 009°56'0 0.0
2014-Jul-20 02:33N 53°30' E 009°56'0 0.0
2014-Jul-20 01:33N 53°30' E 009°56'0 0.0
2014-Jul-20 00:33N 53°30' E 009°56'0 0.0
2014-Jul-19 23:33N 53°30' E 009°56'0 0.0
2014-Jul-19 22:33N 53°30' E 009°56'0 0.0
2014-Jul-19 21:33N 53°30' E 009°56'0 0.0
2014-Jul-19 20:33N 53°30' E 009°56'0 0.0
2014-Jul-19 19:31N 53°30' E 009°56'1 0.9
2014-Jul-19 18:33N 53°31' E 009°56'6 6.3
2014-Jul-19 17:33N 53°33' E 009°47'1111.2
2014-Jul-19 16:33N 53°39' E 009°31'1414.1
2014-Jul-19 15:34N 53°51' E 009°18'1111.4
2014-Jul-19 14:33N 53°51' E 008°59'10 9.7
2014-Jul-19 13:34N 53°53' E 008°43'1110.8
2014-Jul-19 12:34N 53°59' E 008°28'1111.4
2014-Jul-19 11:33N 53°59' E 008°08'4 4.1
2014-Jul-19 10:33N 54°03' E 008°05'1 1.2
2014-Jul-19 09:32N 54°04' E 008°05'0 0.0
2014-Jul-19 08:32N 54°04' E 008°05'0 0.0
2014-Jul-19 07:32N 54°04' E 008°05'0 0.0
2014-Jul-19 06:32N 54°04' E 008°05'0 0.0
2014-Jul-19 05:32N 54°04' E 008°05'  

Dump ship's entire track history